Time;durP1;ratioP1;P1;durP2;ratioP2;P2;SDS_P1;SDS_P2;PMS_P1;PMS_P2;Temp;Humidity;BMP_temperature;BMP_pressure;BME280_temperature;BME280_humidity;BME280_pressure;Samples;Min_cycle;Max_cycle;Signal;HPM_P1;HPM_P2
2021/09/25 00:00:37;;;;;;;11.50;10.10;;;;;;;16.71;84.60;100613.38;4995424;28;20245;-76
2021/09/25 00:03:05;;;;;;;11.70;10.47;;;;;;;16.54;85.33;100597.41;4995064;28;20209;-76
2021/09/25 00:05:35;;;;;;;11.60;10.30;;;;;;;16.60;85.17;100595.38;4995057;28;20694;-76
2021/09/25 00:08:02;;;;;;;10.87;9.97;;;;;;;16.63;85.13;100605.81;4994837;28;20233;-73
2021/09/25 00:10:29;;;;;;;11.67;10.60;;;;;;;16.59;85.49;100596.31;4996896;28;20237;-76
2021/09/25 00:12:56;;;;;;;11.77;10.87;;;;;;;16.57;85.38;100592.00;4994964;28;20250;-75
2021/09/25 00:15:25;;;;;;;11.50;10.43;;;;;;;16.48;85.77;100587.97;5004465;28;20273;-76
2021/09/25 00:17:52;;;;;;;10.90;9.93;;;;;;;16.48;85.89;100586.19;5003366;28;20222;-76
2021/09/25 00:20:19;;;;;;;11.43;10.20;;;;;;;16.48;86.13;100565.09;5014127;28;20235;-75
2021/09/25 00:22:46;;;;;;;9.83;8.93;;;;;;;16.51;86.04;100565.91;5007751;28;20205;-76
2021/09/25 00:25:13;;;;;;;11.20;10.30;;;;;;;16.53;86.23;100572.84;5005642;28;20598;-75
2021/09/25 00:27:39;;;;;;;10.53;9.73;;;;;;;16.55;86.14;100565.72;5014380;28;20234;-76
2021/09/25 00:30:08;;;;;;;11.30;10.40;;;;;;;16.60;85.97;100581.34;4998891;28;20560;-76
2021/09/25 00:32:36;;;;;;;11.07;10.23;;;;;;;16.58;85.60;100585.81;4994570;28;20240;-75
2021/09/25 00:35:03;;;;;;;11.30;10.40;;;;;;;16.63;86.09;100574.16;4994618;28;20282;-76
2021/09/25 00:37:29;;;;;;;11.97;10.77;;;;;;;16.59;85.73;100598.06;4994093;28;20250;-76
2021/09/25 00:39:55;;;;;;;11.13;10.33;;;;;;;16.55;85.77;100593.84;4998112;28;20206;-74
2021/09/25 00:42:22;;;;;;;10.93;10.13;;;;;;;16.46;86.14;100577.50;5013258;28;20237;-74
2021/09/25 00:44:48;;;;;;;14.07;12.50;;;;;;;16.46;86.55;100566.09;4993962;28;20234;-74
2021/09/25 00:47:15;;;;;;;12.00;11.10;;;;;;;16.50;86.45;100564.22;5001429;28;20229;-75
2021/09/25 00:49:42;;;;;;;13.60;12.07;;;;;;;16.50;86.39;100574.75;5013392;28;20249;-74
2021/09/25 00:52:09;;;;;;;12.53;11.43;;;;;;;16.48;86.44;100574.81;5008575;28;20735;-74
2021/09/25 00:54:36;;;;;;;12.70;11.70;;;;;;;16.37;87.03;100562.09;5000489;28;20268;-75
2021/09/25 00:57:03;;;;;;;14.63;13.30;;;;;;;16.24;87.89;100531.88;4992912;28;20634;-75
2021/09/25 00:59:30;;;;;;;12.73;11.73;;;;;;;16.30;87.80;100539.53;4993590;28;20202;-76
2021/09/25 01:01:57;;;;;;;15.87;14.57;;;;;;;16.28;88.06;100523.78;4993316;28;20715;-75
2021/09/25 01:04:23;;;;;;;14.83;13.73;;;;;;;16.18;88.48;100517.19;4993661;28;20226;-76
2021/09/25 01:06:51;;;;;;;14.97;13.67;;;;;;;16.24;88.50;100506.41;4993214;28;20226;-76
2021/09/25 01:09:18;;;;;;;16.80;15.50;;;;;;;16.11;88.94;100505.19;4995167;28;20683;-75
2021/09/25 01:11:44;;;;;;;16.00;14.60;;;;;;;16.18;88.95;100496.13;4994173;28;20296;-76
2021/09/25 01:14:11;;;;;;;15.43;14.27;;;;;;;16.21;88.65;100511.81;4993882;28;20266;-75
2021/09/25 01:16:37;;;;;;;17.30;16.00;;;;;;;16.20;88.83;100517.13;4993961;28;20276;-74
2021/09/25 01:19:03;;;;;;;15.53;14.23;;;;;;;16.27;88.70;100523.84;4993381;28;20280;-76
2021/09/25 01:21:31;;;;;;;16.57;15.30;;;;;;;16.22;88.88;100528.47;4993838;28;20705;-76
2021/09/25 01:23:58;;;;;;;16.47;15.27;;;;;;;16.23;88.85;100522.25;5005654;28;20221;-75
2021/09/25 01:26:25;;;;;;;17.50;15.87;;;;;;;16.19;89.09;100520.66;5013493;28;20244;-76
2021/09/25 01:28:53;;;;;;;16.40;15.10;;;;;;;16.17;89.21;100510.19;5013092;28;20219;-76
2021/09/25 01:31:20;;;;;;;18.37;16.83;;;;;;;16.14;89.63;100509.47;5011583;28;20213;-76
2021/09/25 01:33:49;;;;;;;16.33;15.03;;;;;;;16.17;89.77;100498.81;5012978;28;20271;-76
2021/09/25 01:36:15;;;;;;;16.10;14.73;;;;;;;16.23;89.56;100499.44;5012984;28;20209;-76
2021/09/25 01:38:44;;;;;;;16.57;15.37;;;;;;;16.20;89.31;100498.69;5001942;28;20221;-75
2021/09/25 01:41:14;;;;;;;19.40;17.60;;;;;;;16.19;89.63;100495.19;5004851;28;20628;-76
2021/09/25 01:43:40;;;;;;;20.57;18.87;;;;;;;16.20;89.29;100506.59;5013195;28;20312;-76
2021/09/25 01:46:07;;;;;;;21.17;18.63;;;;;;;16.26;89.07;100515.09;5012947;28;20256;-75
2021/09/25 01:48:33;;;;;;;18.53;16.87;;;;;;;16.27;88.96;100510.66;5012390;28;20240;-75
2021/09/25 01:50:59;;;;;;;17.83;16.43;;;;;;;16.37;88.76;100519.06;5013055;28;20232;-75
2021/09/25 01:53:26;;;;;;;16.67;15.50;;;;;;;16.38;88.75;100521.63;5001333;28;20262;-75
2021/09/25 01:55:54;;;;;;;16.97;15.67;;;;;;;16.43;88.46;100524.94;5001948;28;20236;-74
2021/09/25 01:58:20;;;;;;;17.47;16.07;;;;;;;16.48;88.25;100536.13;4991903;28;20233;-75
2021/09/25 02:00:47;;;;;;;17.30;16.00;;;;;;;16.49;88.23;100544.91;5001286;28;20235;-76
2021/09/25 02:03:13;;;;;;;17.67;16.37;;;;;;;16.53;88.00;100554.41;5012475;28;20277;-76
2021/09/25 02:05:40;;;;;;;15.80;14.70;;;;;;;16.61;87.52;100567.22;5012604;28;20748;-76
2021/09/25 02:08:06;;;;;;;17.27;15.10;;;;;;;16.59;87.83;100564.69;5006868;28;20242;-76
2021/09/25 02:10:33;;;;;;;16.67;15.37;;;;;;;16.47;88.00;100566.03;4993064;28;20242;-76
2021/09/25 02:13:00;;;;;;;18.00;16.27;;;;;;;16.41;88.34;100544.34;4993645;28;20241;-75
2021/09/25 02:15:27;;;;;;;16.23;15.13;;;;;;;16.40;88.40;100534.75;5031463;22;20262;-80
2021/09/25 02:17:53;;;;;;;17.87;16.57;;;;;;;16.41;88.55;100545.22;5031498;28;20236;-80
2021/09/25 02:20:21;;;;;;;16.07;14.97;;;;;;;16.34;88.97;100532.38;5038185;28;20206;-79
2021/09/25 02:22:48;;;;;;;15.67;14.47;;;;;;;16.37;88.91;100514.66;5016860;28;20254;-78
2021/09/25 02:25:14;;;;;;;18.33;16.83;;;;;;;16.41;88.70;100526.78;5020212;28;20732;-78
2021/09/25 02:27:41;;;;;;;17.77;16.47;;;;;;;16.36;88.61;100520.00;5012331;28;20647;-79
2021/09/25 02:30:11;;;;;;;16.90;15.60;;;;;;;16.47;88.47;100521.25;5009092;28;20296;-78
2021/09/25 02:32:38;;;;;;;16.53;15.23;;;;;;;16.55;87.87;100542.00;5012169;28;20228;-78
2021/09/25 02:35:05;;;;;;;16.47;15.17;;;;;;;16.55;88.35;100539.38;5012209;28;20254;-76
2021/09/25 02:37:32;;;;;;;16.70;15.40;;;;;;;16.54;87.89;100552.63;5005415;28;20230;-79
2021/09/25 02:39:58;;;;;;;17.80;16.47;;;;;;;16.50;87.94;100545.75;4999873;28;20243;-77
2021/09/25 02:42:24;;;;;;;18.57;17.27;;;;;;;16.50;87.94;100556.31;4992033;28;20238;-78
2021/09/25 02:44:51;;;;;;;18.47;16.73;;;;;;;16.53;87.89;100553.53;4992597;28;20273;-78
2021/09/25 02:47:18;;;;;;;17.97;16.67;;;;;;;16.46;88.20;100552.94;4992604;28;20287;-77
2021/09/25 02:49:45;;;;;;;18.13;16.73;;;;;;;16.51;88.09;100550.09;4992231;28;20302;-77
2021/09/25 02:52:11;;;;;;;18.13;16.90;;;;;;;16.43;88.16;100547.78;4992477;28;20723;-77
2021/09/25 02:54:37;;;;;;;17.13;16.03;;;;;;;16.40;88.50;100537.38;4997856;28;20299;-77
2021/09/25 02:57:04;;;;;;;16.97;15.87;;;;;;;16.42;88.47;100522.38;5003922;28;20208;-76
2021/09/25 02:59:30;;;;;;;17.23;16.03;;;;;;;16.39;88.54;100535.66;4991939;28;20262;-78
2021/09/25 03:01:57;;;;;;;20.10;18.50;;;;;;;16.34;88.75;100530.59;4992722;28;20244;-79
2021/09/25 03:04:25;;;;;;;20.00;18.27;;;;;;;16.38;88.78;100524.25;4992403;28;20277;-78
2021/09/25 03:06:51;;;;;;;19.03;17.57;;;;;;;16.38;88.74;100524.25;4992381;28;20244;-78
2021/09/25 03:09:17;;;;;;;18.03;16.77;;;;;;;16.35;89.03;100528.78;4991809;28;20203;-78
2021/09/25 03:11:44;;;;;;;20.07;18.43;;;;;;;16.18;89.41;100513.69;4991329;28;20624;-78
2021/09/25 03:14:10;;;;;;;18.00;16.53;;;;;;;16.24;89.61;100506.41;4992087;28;20240;-78
2021/09/25 03:16:37;;;;;;;19.03;17.77;;;;;;;16.13;90.08;100479.63;4992446;28;20245;-77
2021/09/25 03:19:03;;;;;;;18.13;16.70;;;;;;;16.16;90.09;100484.78;4992861;28;20263;-77
2021/09/25 03:21:31;;;;;;;18.67;17.27;;;;;;;16.15;90.26;100484.84;4996060;28;20210;-77
2021/09/25 03:23:57;;;;;;;17.30;16.10;;;;;;;16.24;89.82;100487.09;4997319;28;20246;-79
2021/09/25 03:26:24;;;;;;;18.67;17.37;;;;;;;16.30;89.43;100505.28;5012358;28;20230;-78
2021/09/25 03:28:50;;;;;;;18.23;17.00;;;;;;;16.31;89.31;100514.03;4997060;28;20194;-76
2021/09/25 03:31:17;;;;;;;18.10;16.73;;;;;;;16.24;89.44;100513.44;5015543;28;20241;-77
2021/09/25 03:33:43;;;;;;;17.87;16.70;;;;;;;16.16;89.56;100516.41;5015610;28;20237;-78
2021/09/25 03:36:10;;;;;;;17.40;16.30;;;;;;;16.24;89.50;100502.91;5015527;28;20226;-77
2021/09/25 03:38:38;;;;;;;18.40;16.90;;;;;;;16.28;89.37;100505.34;5009523;28;20219;-78
2021/09/25 03:41:04;;;;;;;17.17;15.90;;;;;;;16.31;89.28;100514.03;5015425;28;20277;-79
2021/09/25 03:43:31;;;;;;;16.87;15.80;;;;;;;16.38;88.66;100523.41;5012662;28;20250;-79
2021/09/25 03:45:57;;;;;;;17.07;15.77;;;;;;;16.38;88.77;100532.16;4976172;28;20231;-78
2021/09/25 03:48:23;;;;;;;16.23;15.03;;;;;;;16.39;89.08;100519.84;4976011;28;20204;-78
2021/09/25 03:50:50;;;;;;;17.20;16.10;;;;;;;16.43;88.70;100535.47;4975973;28;20698;-78
2021/09/25 03:53:16;;;;;;;18.50;15.97;;;;;;;16.33;88.76;100542.03;4988795;28;20238;-77
2021/09/25 03:55:44;;;;;;;16.90;15.77;;;;;;;16.40;88.64;100534.75;5015290;28;20254;-78
2021/09/25 03:58:10;;;;;;;17.57;16.20;;;;;;;16.45;88.26;100540.66;5014924;28;20225;-76
2021/09/25 04:00:42;;;;;;;17.20;16.07;;;;;;;16.41;88.34;100554.88;5008478;28;20234;-76
2021/09/25 04:03:08;;;;;;;17.30;15.83;;;;;;;16.40;88.36;100547.91;4975906;28;20218;-78
2021/09/25 04:05:34;;;;;;;17.70;16.50;;;;;;;16.43;88.74;100524.94;4975827;28;20646;-77
2021/09/25 04:08:01;;;;;;;18.80;17.13;;;;;;;16.52;88.56;100538.66;4976036;28;20215;-78
2021/09/25 04:10:27;;;;;;;17.90;16.60;;;;;;;16.52;88.35;100543.91;4975796;28;20209;-78
2021/09/25 04:12:56;;;;;;;16.17;14.97;;;;;;;16.52;88.38;100542.13;4975750;28;20643;-77
2021/09/25 04:15:22;;;;;;;18.20;16.83;;;;;;;16.48;87.99;100551.09;4975609;28;20759;-77
2021/09/25 04:17:49;;;;;;;17.20;15.90;;;;;;;16.44;88.00;100552.97;5003291;28;20204;-78
2021/09/25 04:20:16;;;;;;;18.53;16.97;;;;;;;16.45;87.80;100559.97;5014491;28;20643;-78
2021/09/25 04:22:42;;;;;;;18.70;17.10;;;;;;;16.34;88.61;100548.16;5014707;28;20241;-78
2021/09/25 04:25:09;;;;;;;18.07;16.67;;;;;;;16.37;88.13;100548.03;5015011;28;20258;-79
2021/09/25 04:27:36;;;;;;;18.17;16.77;;;;;;;16.24;88.43;100547.69;5014454;28;20647;-79
2021/09/25 04:30:04;;;;;;;18.23;16.73;;;;;;;16.19;88.61;100534.69;5014161;28;20241;-79
2021/09/25 04:32:30;;;;;;;18.47;16.97;;;;;;;16.14;88.74;100533.19;5013277;28;20205;-78
2021/09/25 04:34:57;;;;;;;18.93;17.33;;;;;;;16.15;88.93;100533.09;5011405;28;20284;-78
2021/09/25 04:37:23;;;;;;;20.03;18.20;;;;;;;16.24;88.74;100542.41;4994907;28;20245;-78
2021/09/25 04:39:50;;;;;;;19.90;18.30;;;;;;;16.28;88.69;100549.28;4994187;28;20266;-77
2021/09/25 04:42:16;;;;;;;19.03;17.47;;;;;;;16.35;88.24;100555.13;4989401;28;20625;-79
2021/09/25 04:44:42;;;;;;;17.97;16.77;;;;;;;16.35;88.14;100566.56;4994305;28;20296;-78
2021/09/25 04:47:10;;;;;;;19.10;17.73;;;;;;;16.44;87.76;100581.13;5005412;28;20712;-80
2021/09/25 04:49:36;;;;;;;19.90;18.40;;;;;;;16.40;87.93;100582.16;5013739;28;20713;-79
2021/09/25 04:52:03;;;;;;;19.30;17.73;;;;;;;16.45;87.75;100596.88;5010933;28;20214;-77
2021/09/25 04:54:30;;;;;;;19.40;17.90;;;;;;;16.46;87.57;100603.84;4994429;28;20259;-78
2021/09/25 04:56:56;;;;;;;20.10;18.50;;;;;;;16.40;87.36;100597.97;4994604;28;20666;-79
2021/09/25 04:59:22;;;;;;;19.57;17.87;;;;;;;16.46;87.34;100603.84;5013830;28;20265;-79
2021/09/25 05:01:48;;;;;;;21.73;20.00;;;;;;;16.37;87.48;100596.34;5013636;28;20249;-78
2021/09/25 05:04:17;;;;;;;21.90;20.30;;;;;;;16.30;87.76;100589.59;5013976;28;20202;-76
2021/09/25 05:06:43;;;;;;;21.53;19.77;;;;;;;16.30;87.86;100594.00;5013876;28;20206;-78
2021/09/25 05:09:10;;;;;;;23.23;21.53;;;;;;;16.26;87.89;100591.47;5013659;28;20702;-79
2021/09/25 05:11:36;;;;;;;23.17;21.23;;;;;;;16.24;88.11;100581.94;4993096;28;20293;-78
2021/09/25 05:14:03;;;;;;;23.63;21.80;;;;;;;16.31;87.97;100585.16;4994424;28;20262;-78
2021/09/25 05:16:30;;;;;;;23.23;21.37;;;;;;;16.34;87.97;100583.28;4992626;28;20206;-79
2021/09/25 05:18:56;;;;;;;22.40;20.90;;;;;;;16.35;87.81;100587.63;4974879;28;20262;-79
2021/09/25 05:21:24;;;;;;;22.33;20.67;;;;;;;16.38;87.69;100594.53;4976280;28;20256;-77
2021/09/25 05:23:50;;;;;;;24.03;22.07;;;;;;;16.34;87.70;100599.06;5010916;28;20202;-78
2021/09/25 05:26:17;;;;;;;22.50;20.83;;;;;;;16.31;87.65;100591.28;5013686;28;20261;-77
2021/09/25 05:28:43;;;;;;;23.17;21.57;;;;;;;16.37;87.48;100598.09;4977222;28;20224;-77
2021/09/25 05:31:11;;;;;;;20.70;19.30;;;;;;;16.41;87.64;100603.19;4974784;28;20235;-77
2021/09/25 05:33:39;;;;;;;20.77;19.20;;;;;;;16.45;87.36;100615.31;4974626;28;20242;-77
2021/09/25 05:36:05;;;;;;;22.20;20.40;;;;;;;16.41;87.25;100616.38;4974824;28;20232;-78
2021/09/25 05:38:33;;;;;;;21.23;19.73;;;;;;;16.41;87.26;100615.47;4974043;28;20212;-77
2021/09/25 05:41:00;;;;;;;20.80;19.00;;;;;;;16.48;86.91;100636.25;4975096;28;20208;-77
2021/09/25 05:43:26;;;;;;;19.07;17.47;;;;;;;16.50;86.51;100648.53;4974426;28;20244;-78
2021/09/25 05:45:52;;;;;;;19.70;18.30;;;;;;;16.55;86.53;100652.69;4975211;28;20734;-77
2021/09/25 05:48:19;;;;;;;20.00;18.60;;;;;;;16.51;86.59;100656.38;4985369;28;20206;-78
2021/09/25 05:50:45;;;;;;;20.07;18.60;;;;;;;16.51;86.26;100660.78;4994631;28;20265;-76
2021/09/25 05:53:11;;;;;;;19.60;18.30;;;;;;;16.46;86.42;100651.28;5001843;28;20670;-79
2021/09/25 05:55:40;;;;;;;19.50;18.10;;;;;;;16.37;86.64;100645.50;5009674;28;20230;-77
2021/09/25 05:58:06;;;;;;;20.97;19.47;;;;;;;16.43;86.65;100646.16;5013551;28;20202;-78
2021/09/25 06:00:33;;;;;;;18.27;16.87;;;;;;;16.51;86.41;100664.28;5013036;28;20271;-80
2021/09/25 06:03:01;;;;;;;17.53;16.20;;;;;;;16.56;86.25;100664.94;4980314;28;20637;-77
2021/09/25 06:05:30;;;;;;;18.50;16.87;;;;;;;16.52;86.20;100673.88;4977113;28;20628;-78
2021/09/25 06:07:56;;;;;;;19.37;17.73;;;;;;;16.53;86.27;100670.34;5011412;28;20226;-78
2021/09/25 06:10:23;;;;;;;17.97;16.50;;;;;;;16.57;86.08;100676.34;5012907;28;20236;-77
2021/09/25 06:12:50;;;;;;;18.33;17.03;;;;;;;16.50;85.57;100699.44;5012583;28;20591;-77
2021/09/25 06:15:17;;;;;;;15.83;14.63;;;;;;;16.53;85.70;100695.81;5012899;28;20274;-80
2021/09/25 06:17:43;;;;;;;16.53;15.03;;;;;;;16.40;85.80;100696.31;5014171;28;20211;-80
2021/09/25 06:20:11;;;;;;;15.80;14.70;;;;;;;16.44;85.65;100687.38;5008173;28;20705;-80
2021/09/25 06:22:38;;;;;;;16.67;15.40;;;;;;;16.52;85.81;100697.59;5000650;28;20230;-79
2021/09/25 06:25:06;;;;;;;16.50;15.30;;;;;;;16.59;85.26;100711.38;5008410;28;20231;-82
2021/09/25 06:27:32;;;;;;;16.13;14.83;;;;;;;16.53;84.97;100733.59;5016267;28;20688;-80
2021/09/25 06:30:00;;;;;;;15.17;13.80;;;;;;;16.57;85.39;100713.22;5016153;28;20297;-80
2021/09/25 06:32:26;;;;;;;15.10;14.10;;;;;;;16.61;85.15;100730.63;5013484;28;20202;-81
2021/09/25 06:34:53;;;;;;;14.73;13.73;;;;;;;16.58;84.69;100746.59;4984775;28;20726;-79
2021/09/25 06:37:19;;;;;;;14.13;13.13;;;;;;;16.62;84.72;100732.38;4977555;28;20239;-81
2021/09/25 06:39:46;;;;;;;14.17;13.07;;;;;;;16.67;84.54;100744.44;4976795;28;20239;-80
2021/09/25 06:42:12;;;;;;;12.80;11.90;;;;;;;16.74;84.43;100746.84;4978555;28;20625;-80
2021/09/25 06:44:38;;;;;;;12.90;12.00;;;;;;;16.76;83.99;100755.53;4995318;28;20223;-80
2021/09/25 06:47:06;;;;;;;12.50;11.70;;;;;;;16.66;83.72;100774.34;5000230;28;20265;-80
2021/09/25 06:49:32;;;;;;;11.80;11.00;;;;;;;16.74;83.86;100765.28;5004454;28;20198;-82
2021/09/25 06:51:59;;;;;;;12.23;11.23;;;;;;;16.73;83.96;100767.09;5020615;28;20228;-82
2021/09/25 06:54:26;;;;;;;11.70;10.80;;;;;;;16.80;83.55;100780.88;5020078;28;20223;-82
2021/09/25 06:56:52;;;;;;;10.70;9.97;;;;;;;16.78;83.25;100785.34;5021382;28;20214;-80
2021/09/25 06:59:19;;;;;;;11.90;10.87;;;;;;;16.72;83.09;100790.84;4983970;28;20270;-82
2021/09/25 07:01:45;;;;;;;11.43;10.63;;;;;;;16.60;82.67;100815.91;4980939;28;20270;-82
2021/09/25 07:04:13;;;;;;;11.10;10.20;;;;;;;16.61;83.08;100809.72;4981045;28;20235;-82
2021/09/25 07:06:40;;;;;;;10.33;9.43;;;;;;;16.42;83.60;100793.75;4983078;28;20203;-81
2021/09/25 07:09:07;;;;;;;10.60;9.70;;;;;;;16.39;83.55;100800.00;4997944;28;20257;-81
2021/09/25 07:11:33;;;;;;;9.50;8.80;;;;;;;16.53;83.63;100790.69;4997384;28;20216;-81
2021/09/25 07:14:00;;;;;;;8.47;7.87;;;;;;;16.44;83.48;100803.31;4979635;28;20211;-80
2021/09/25 07:16:26;;;;;;;8.27;7.67;;;;;;;16.37;83.37;100815.00;4989225;28;20222;-80
2021/09/25 07:18:53;;;;;;;8.37;7.77;;;;;;;16.49;83.50;100803.16;5016531;28;20241;-81
2021/09/25 07:21:20;;;;;;;8.33;7.67;;;;;;;16.61;83.57;100817.63;4980777;28;20208;-83
2021/09/25 07:23:47;;;;;;;8.77;8.07;;;;;;;16.59;82.97;100845.81;5013099;28;20205;-81
2021/09/25 07:26:13;;;;;;;8.60;7.90;;;;;;;16.61;82.72;100854.50;5016686;28;20271;-80
2021/09/25 07:28:40;;;;;;;7.87;7.27;;;;;;;16.54;82.32;100861.78;4999545;28;20212;-79
2021/09/25 07:31:09;;;;;;;7.80;7.30;;;;;;;16.58;82.86;100847.59;4996970;28;20207;-82
2021/09/25 07:33:35;;;;;;;7.90;7.20;;;;;;;16.62;82.70;100850.97;4996236;28;20633;-80
2021/09/25 07:36:02;;;;;;;7.63;7.03;;;;;;;16.60;82.70;100858.94;4994778;28;20260;-78
2021/09/25 07:38:30;;;;;;;7.53;6.83;;;;;;;16.73;83.05;100840.00;4991776;28;20653;-78
2021/09/25 07:40:57;;;;;;;7.67;7.07;;;;;;;16.78;82.65;100844.19;4991808;28;20259;-78
2021/09/25 07:43:23;;;;;;;7.40;6.60;;;;;;;16.73;81.91;100876.91;4991936;28;20210;-78
2021/09/25 07:45:50;;;;;;;7.67;7.07;;;;;;;16.82;82.05;100872.19;4976172;28;20644;-78
2021/09/25 07:48:16;;;;;;;7.87;7.13;;;;;;;16.92;81.85;100879.75;4972406;28;20284;-77
2021/09/25 07:50:43;;;;;;;6.60;6.10;;;;;;;17.01;81.82;100887.34;4971990;28;20267;-80
2021/09/25 07:53:09;;;;;;;6.83;6.27;;;;;;;17.01;81.30;100906.66;4998228;28;20242;-79
2021/09/25 07:55:37;;;;;;;6.20;5.70;;;;;;;17.10;81.55;100896.66;5011732;28;20269;-78
2021/09/25 07:58:04;;;;;;;6.53;5.93;;;;;;;17.16;81.00;100914.88;4993626;28;20214;-77
2021/09/25 08:00:30;;;;;;;6.77;6.17;;;;;;;17.22;80.42;100938.38;4991328;28;20282;-78
2021/09/25 08:02:56;;;;;;;5.60;5.20;;;;;;;17.17;79.61;100969.38;4991829;28;20747;-77
2021/09/25 08:05:23;;;;;;;7.00;6.07;;;;;;;17.20;79.88;100971.88;4992028;28;20747;-78
2021/09/25 08:07:49;;;;;;;5.57;5.07;;;;;;;17.26;80.04;100967.25;4994167;28;20227;-77
2021/09/25 08:10:16;;;;;;;5.63;5.13;;;;;;;17.22;79.29;100978.84;4994742;28;20290;-77
2021/09/25 08:12:44;;;;;;;5.77;5.20;;;;;;;17.19;79.29;101000.06;4995041;28;20238;-77
2021/09/25 08:15:13;;;;;;;6.10;5.57;;;;;;;17.22;79.66;100977.97;5046957;22;20273;-79
2021/09/25 08:17:40;;;;;;;5.40;4.87;;;;;;;17.21;79.65;100981.53;5012029;28;20211;-81
2021/09/25 08:20:10;;;;;;;5.13;4.70;;;;;;;17.35;79.69;100984.50;5006988;28;20245;-81
2021/09/25 08:22:37;;;;;;;5.50;5.00;;;;;;;17.27;78.87;101015.59;5017478;28;20211;-82
2021/09/25 08:25:04;;;;;;;5.77;5.20;;;;;;;17.16;78.65;101010.72;5019436;28;20237;-82
2021/09/25 08:27:30;;;;;;;4.97;4.57;;;;;;;17.30;79.74;100990.88;5016135;28;20207;-81
2021/09/25 08:29:58;;;;;;;4.87;4.47;;;;;;;17.33;79.15;101010.09;5013774;28;20235;-80
2021/09/25 08:32:24;;;;;;;5.97;5.47;;;;;;;17.34;78.32;101035.53;5020542;28;20204;-80
2021/09/25 08:34:51;;;;;;;5.17;4.77;;;;;;;17.23;78.76;101037.75;5008442;28;20204;-80
2021/09/25 08:37:17;;;;;;;5.33;4.83;;;;;;;17.24;79.00;101020.97;5009396;28;20231;-83
2021/09/25 08:39:44;;;;;;;6.17;4.60;;;;;;;17.29;79.27;101018.19;5009987;28;20596;-82
2021/09/25 08:42:13;;;;;;;5.60;5.10;;;;;;;17.19;78.65;101041.41;5009433;28;20238;-82
2021/09/25 08:44:40;;;;;;;4.90;4.50;;;;;;;17.24;78.64;101044.72;5017815;28;20729;-79
2021/09/25 08:47:08;;;;;;;5.03;4.53;;;;;;;17.30;79.31;101025.16;5012517;28;20220;-82
2021/09/25 08:49:35;;;;;;;4.73;4.33;;;;;;;17.43;79.13;101027.28;5007379;28;20223;-79
2021/09/25 08:52:02;;;;;;;5.03;4.53;;;;;;;17.45;78.56;101043.06;5007539;28;20208;-79
2021/09/25 08:54:28;;;;;;;5.37;4.87;;;;;;;17.54;78.44;101037.44;5006005;28;20303;-79
2021/09/25 08:56:54;;;;;;;5.60;5.10;;;;;;;17.55;77.93;101068.19;5007466;28;20222;-79
2021/09/25 08:59:21;;;;;;;4.50;4.20;;;;;;;17.57;77.55;101089.25;5012907;28;20233;-79
2021/09/25 09:01:48;;;;;;;4.37;3.90;;;;;;;17.69;77.44;101082.66;5013318;28;20253;-78
2021/09/25 09:04:17;;;;;;;5.67;4.57;;;;;;;17.80;76.97;101101.56;5006775;28;20289;-79
2021/09/25 09:06:47;;;;;;;4.50;4.20;;;;;;;17.97;77.62;101093.03;5006888;28;20776;-80
2021/09/25 09:09:14;;;;;;;4.90;4.50;;;;;;;18.19;77.04;101087.75;5005199;28;20247;-79
2021/09/25 09:11:42;;;;;;;4.97;4.10;;;;;;;18.24;75.83;101143.94;5007177;28;20227;-79
2021/09/25 09:14:13;;;;;;;4.90;4.50;;;;;;;18.23;75.19;101177.41;5008825;28;20202;-79
2021/09/25 09:16:39;;;;;;;4.50;4.13;;;;;;;18.20;74.57;101196.06;5007913;28;20234;-79
2021/09/25 09:19:05;;;;;;;4.40;4.10;;;;;;;17.98;74.51;101201.28;5011199;28;20203;-79
2021/09/25 09:21:34;;;;;;;4.80;4.27;;;;;;;18.01;76.23;101139.56;5007247;28;20271;-79
2021/09/25 09:24:03;;;;;;;5.10;4.67;;;;;;;18.05;76.57;101104.16;5011193;28;20242;-79
2021/09/25 09:26:31;;;;;;;4.70;4.00;;;;;;;17.89;75.95;101155.88;5006884;28;20242;-79
2021/09/25 09:28:59;;;;;;;4.73;4.23;;;;;;;17.89;75.97;101155.88;5007869;28;20577;-80
2021/09/25 09:31:26;;;;;;;4.53;4.23;;;;;;;17.98;75.75;101161.66;5015524;28;20230;-79
2021/09/25 09:33:54;;;;;;;4.53;4.13;;;;;;;18.11;74.89;101169.97;5010532;28;20269;-79
2021/09/25 09:36:26;;;;;;;5.03;4.53;;;;;;;18.12;74.54;101200.78;5010868;28;20269;-79
2021/09/25 09:39:00;;;;;;;4.20;3.90;;;;;;;18.26;75.37;101166.75;5003363;28;20257;-80
2021/09/25 09:41:31;;;;;;;4.63;4.33;;;;;;;18.33;73.87;101209.63;5016419;28;20634;-79
2021/09/25 09:43:59;;;;;;;4.07;3.77;;;;;;;18.45;74.47;101203.00;5015000;28;20206;-78
2021/09/25 09:46:30;;;;;;;4.43;4.13;;;;;;;18.36;73.64;101229.81;5015287;28;20266;-79
2021/09/25 09:48:57;;;;;;;4.53;4.23;;;;;;;18.35;73.34;101243.94;5002113;28;20201;-78
2021/09/25 09:51:47;;;;;;;4.20;3.90;;;;;;;18.49;73.20;101240.78;4996799;28;20238;-79
2021/09/25 09:54:19;;;;;;;4.17;3.87;;;;;;;18.38;72.25;101291.44;4997143;28;20204;-80
2021/09/25 09:56:45;;;;;;;3.73;3.50;;;;;;;18.50;71.85;101277.72;4998211;28;20231;-80
2021/09/25 09:59:13;;;;;;;5.07;3.50;;;;;;;18.48;71.93;101281.38;4999143;28;20209;-80
2021/09/25 10:01:42;;;;;;;3.63;3.33;;;;;;;18.44;72.33;101286.75;4999351;28;20227;-80
2021/09/25 10:04:09;;;;;;;4.43;4.03;;;;;;;18.45;72.02;101298.19;5013142;28;20264;-80
2021/09/25 10:06:37;;;;;;;4.13;3.73;;;;;;;18.40;72.08;101295.72;5030738;28;20226;-78
2021/09/25 10:09:07;;;;;;;4.47;4.07;;;;;;;18.60;72.97;101257.09;5038812;28;20298;-80
2021/09/25 10:11:36;;;;;;;3.63;3.33;;;;;;;18.73;71.46;101294.47;5035351;28;20299;-80
2021/09/25 10:14:03;;;;;;;3.77;3.50;;;;;;;18.55;71.11;101330.44;5034767;28;20587;-80
2021/09/25 10:16:30;;;;;;;4.00;3.30;;;;;;;18.66;71.92;101300.00;5018015;28;20238;-80
2021/09/25 10:18:58;;;;;;;4.50;4.10;;;;;;;18.66;71.79;101301.78;5018154;28;20657;-80
2021/09/25 10:21:25;;;;;;;3.67;3.43;;;;;;;18.53;72.45;101292.59;5018475;28;20254;-80
2021/09/25 10:23:58;;;;;;;4.50;4.10;;;;;;;18.65;71.73;101290.38;5024800;28;20253;-80
2021/09/25 10:26:25;;;;;;;5.10;3.50;;;;;;;18.81;71.58;101303.00;5031450;28;20721;-80
2021/09/25 10:28:58;;;;;;;5.97;4.00;;;;;;;18.98;72.56;101289.09;5037145;28;20207;-79
2021/09/25 10:31:24;;;;;;;3.50;3.20;;;;;;;19.07;70.72;101336.38;5026283;28;20204;-79
2021/09/25 10:34:17;;;;;;;4.00;3.60;;;;;;;19.16;71.04;101327.19;5028674;28;20204;-79
2021/09/25 10:36:53;;;;;;;3.37;2.73;;;;;;;19.31;70.93;101346.91;5027365;28;20227;-80
2021/09/25 10:39:29;;;;;;;3.30;3.10;;;;;;;19.30;70.59;101359.25;5037253;28;20214;-80
2021/09/25 10:42:11;;;;;;;3.83;3.47;;;;;;;19.43;69.67;101386.97;5036986;28;20222;-80
2021/09/25 10:44:49;;;;;;;3.93;2.80;;;;;;;19.51;69.35;101399.03;5037298;28;20218;-80
2021/09/25 10:47:18;;;;;;;4.20;3.17;;;;;;;19.44;68.94;101417.84;5032650;28;20203;-81
2021/09/25 10:49:50;;;;;;;3.40;3.10;;;;;;;19.35;68.64;101420.84;5030339;28;20214;-82
2021/09/25 10:52:18;;;;;;;3.40;3.20;;;;;;;19.52;68.39;101406.91;5019957;28;20658;-81
2021/09/25 10:54:46;;;;;;;3.50;3.20;;;;;;;19.57;68.76;101409.38;5012228;28;20196;-82
2021/09/25 10:57:16;;;;;;;4.27;3.47;;;;;;;19.68;68.21;101425.66;5015623;28;20218;-79
2021/09/25 11:00:20;;;;;;;3.00;2.73;;;;;;;19.79;69.07;101394.34;5017036;28;20192;-81
2021/09/25 11:02:46;;;;;;;6.53;2.77;;;;;;;19.80;69.07;101404.03;4997514;28;20194;-82
2021/09/25 11:05:16;;;;;;;3.10;2.90;;;;;;;19.88;67.97;101439.91;5014630;28;20258;-82
2021/09/25 11:07:43;;;;;;;4.10;3.70;;;;;;;19.67;67.35;101453.09;5020786;28;20263;-81
2021/09/25 11:10:09;;;;;;;4.53;3.60;;;;;;;19.78;68.54;101420.88;5017988;28;20204;-82
2021/09/25 11:12:45;;;;;;;4.00;3.70;;;;;;;19.53;67.76;101455.47;5017657;28;20214;-81
2021/09/25 11:15:32;;;;;;;4.20;3.90;;;;;;;19.52;69.21;101387.50;5017433;28;20230;-82